Colorado Springs, CO (80942)

4:52 PM MST on January 30, 2015 (GMT -0700)
Old North End (Cascade & Washington) | Change Station
CLOSE
Current Station
Personal Weather Station
Location: Colorado Springs, CO
Elevation: 6122 ft
Nearby Weather Stations

Elev 6122 ft 38.86 °N, 104.82 °W | Updated 10 minutes ago

Overcast
Overcast
43.0 °F
Feels Like 43 °F
N
0.0
Wind Variable Wind from WSW

Today
High -- | Low -- °F
--% Chance of Precip.
Yesterday
High -- | Low -- °F
Precip. -- in
7:07 AM 5:18 PM
Waxing Gibbous, 86% visible
Pressure 30.13 in
Visibility 10.0 miles
Clouds Scattered Clouds 7000 ft
Overcast 9000 ft
Windchill 43 °F
Dew Point 26 °F
Humidity 51%
Rainfall 0.00 in
Snow Depth Not available.
UV 0 out of 12
Pollen .30 out of 12
Air Quality Not available.
Flu Activity Not available.
METAR KCOS 302254Z 00000KT 10SM SCT070 OVC090 04/M04 A3008 RMK AO2 SLP203 VCSH OMTNS W T00441039

More Conditions Fewer Conditions

Pressure 30.13 in
Visibility 10.0 miles
Clouds Scattered Clouds 7000 ft
Overcast 9000 ft
Windchill 43 °F
Dew Point 26 °F
Humidity 51%
Rainfall 0.00 in
Snow Depth Not available.
UV 0 out of 12
Pollen .30 out of 12
Air Quality Not available.
Flu Activity Not available.
METAR KCOS 302254Z 00000KT 10SM SCT070 OVC090 04/M04 A3008 RMK AO2 SLP203 VCSH OMTNS W T00441039

More Conditions Fewer Conditions

10-Day Weather Forecast

Almanac

Astronomy

Jan. 30, 2015 Rise Set
Actual Time
Civil Twilight
Nautical Twilight
Astronomical Twilight
Moon
Length of Visible Light
Length of Day
Tomorrow will be .
, % of the Moon is Illuminated

Today's Extremes

State Highs State Lows

Community

WunderPhotos

Upload Photos

1,791,934 photos uploaded!

WunderBlogs® & News

Nearby

Air Quality

  Air Quality AQ Index Pollutant
Not available.

Snow Depth

Station Depth Elevation

Earthquake Activity

City Distance Mag. Time & Date
Minimum magnitude displayed is 2.5.

Coastal Water Temperatures

Place Temperature

Nearby Weather Stations